createdAt,value
2018-05-17T00:01:06.041Z,84.40
2018-05-17T00:03:35.808Z,84.80
2018-05-17T00:06:03.846Z,84.30
2018-05-17T00:08:32.297Z,84.20
2018-05-17T00:11:01.865Z,84.20
2018-05-17T00:13:29.898Z,83.80
2018-05-17T00:15:57.955Z,83.50
2018-05-17T00:18:27.528Z,83.50
2018-05-17T00:20:55.587Z,83.40
2018-05-17T00:23:23.622Z,83.30
2018-05-17T00:25:51.698Z,83.40
2018-05-17T00:28:19.749Z,83.80
2018-05-17T00:30:48.561Z,84.30
2018-05-17T00:33:16.638Z,83.80
2018-05-17T00:35:44.745Z,83.80
2018-05-17T00:38:12.742Z,83.50
2018-05-17T00:40:40.781Z,83.70
2018-05-17T00:43:08.866Z,83.80
2018-05-17T00:45:36.913Z,83.80
2018-05-17T00:48:04.973Z,83.80
2018-05-17T00:50:33.045Z,83.60
2018-05-17T00:53:13.187Z,83.70
2018-05-17T00:55:41.226Z,83.40
2018-05-17T00:58:10.039Z,84.20
2018-05-17T01:00:38.106Z,83.50
2018-05-17T01:03:06.173Z,83.80
2018-05-17T01:05:34.991Z,84.20
2018-05-17T01:08:03.046Z,83.50
2018-05-17T01:10:31.126Z,83.30
2018-05-17T01:12:59.149Z,83.40
2018-05-17T01:15:27.311Z,83.60
2018-05-17T01:17:55.267Z,83.60
2018-05-17T01:20:23.308Z,83.90
2018-05-17T01:22:51.396Z,83.70
2018-05-17T01:25:19.492Z,84.40
2018-05-17T01:27:47.616Z,83.80
2018-05-17T01:30:15.662Z,83.80
2018-05-17T01:32:44.518Z,83.80
2018-05-17T01:35:12.605Z,83.40
2018-05-17T01:37:52.502Z,83.40
2018-05-17T01:40:20.591Z,83.40
2018-05-17T01:42:48.658Z,83.20
2018-05-17T01:45:16.762Z,83.10
2018-05-17T01:47:45.623Z,82.90
2018-05-17T01:50:13.644Z,83.50
2018-05-17T01:52:42.460Z,83.60
2018-05-17T01:55:10.531Z,82.90
2018-05-17T01:57:38.580Z,82.90
2018-05-17T02:00:07.406Z,83.20
2018-05-17T02:02:35.445Z,82.40
2018-05-17T02:05:04.281Z,82.70
2018-05-17T02:07:32.345Z,82.60
2018-05-17T02:10:00.400Z,82.30
2018-05-17T02:12:28.462Z,82.80
2018-05-17T02:14:56.530Z,82.10
2018-05-17T02:17:24.578Z,82.60
2018-05-17T02:19:53.424Z,83.10
2018-05-17T02:22:21.500Z,82.50
2018-05-17T02:24:49.547Z,82.60
2018-05-17T02:27:18.779Z,83.00
2018-05-17T02:29:46.862Z,82.50
2018-05-17T02:32:14.917Z,82.60
2018-05-17T02:34:43.079Z,83.20
2018-05-17T02:37:11.123Z,83.10
2018-05-17T02:39:39.183Z,83.20
2018-05-17T02:42:08.016Z,83.70
2018-05-17T02:44:36.053Z,83.40
2018-05-17T02:47:04.109Z,83.60
2018-05-17T02:49:32.960Z,83.90
2018-05-17T02:52:01.052Z,83.30
2018-05-17T02:54:29.088Z,83.30
2018-05-17T02:56:57.163Z,82.20
2018-05-17T02:59:25.241Z,82.00
2018-05-17T03:01:53.303Z,82.00
2018-05-17T03:04:21.376Z,81.80
2018-05-17T03:06:49.463Z,82.30
2018-05-17T03:09:17.822Z,81.90
2018-05-17T03:11:45.894Z,81.70
2018-05-17T03:14:13.927Z,82.10
2018-05-17T03:16:42.834Z,81.40
2018-05-17T03:19:10.899Z,81.00
2018-05-17T03:21:38.962Z,81.10
2018-05-17T03:24:08.245Z,80.80
2018-05-17T03:26:36.268Z,81.40
2018-05-17T03:29:04.888Z,81.40
2018-05-17T03:31:32.962Z,81.00
2018-05-17T03:34:00.985Z,81.50
2018-05-17T03:36:29.066Z,80.90
2018-05-17T03:38:57.102Z,80.70
2018-05-17T03:41:25.183Z,79.50
2018-05-17T03:43:53.265Z,79.30
2018-05-17T03:46:21.316Z,79.80
2018-05-17T03:48:49.402Z,80.00
2018-05-17T03:51:17.474Z,80.10
2018-05-17T03:53:45.545Z,81.30
2018-05-17T03:56:13.623Z,81.10
2018-05-17T03:58:42.402Z,79.80
2018-05-17T04:01:22.607Z,79.70
2018-05-17T04:04:02.292Z,79.30
2018-05-17T04:06:40.794Z,79.80
2018-05-17T04:09:09.623Z,79.60
2018-05-17T04:11:37.678Z,79.00
2018-05-17T04:14:06.149Z,79.50
2018-05-17T04:16:34.170Z,79.00
2018-05-17T04:19:02.242Z,79.00
2018-05-17T04:21:30.306Z,79.20
2018-05-17T04:23:58.357Z,78.80
2018-05-17T04:26:26.436Z,78.90
2018-05-17T04:28:54.501Z,78.40
2018-05-17T04:31:22.534Z,78.10
2018-05-17T04:33:51.354Z,78.40
2018-05-17T04:36:19.422Z,78.00
2018-05-17T04:38:47.495Z,78.00
2018-05-17T04:41:15.574Z,77.60
2018-05-17T04:43:43.634Z,77.60
2018-05-17T04:46:11.685Z,77.30
2018-05-17T04:48:40.478Z,77.20
2018-05-17T04:51:08.537Z,77.20
2018-05-17T04:53:37.357Z,76.00
2018-05-17T04:56:05.407Z,75.70
2018-05-17T04:58:33.868Z,75.30
2018-05-17T05:01:01.932Z,74.90
2018-05-17T05:03:29.981Z,74.80
2018-05-17T05:05:58.037Z,75.00
2018-05-17T05:08:26.527Z,74.90
2018-05-17T05:10:54.590Z,74.40
2018-05-17T05:13:23.406Z,74.20
2018-05-17T05:15:51.454Z,74.10
2018-05-17T05:18:19.922Z,73.50
2018-05-17T05:20:47.972Z,73.90
2018-05-17T05:23:16.034Z,73.70
2018-05-17T05:25:44.848Z,74.10
2018-05-17T05:28:12.920Z,73.10
2018-05-17T05:30:41.336Z,72.80
2018-05-17T05:33:09.382Z,72.60
2018-05-17T05:35:37.442Z,72.30
2018-05-17T05:38:05.539Z,71.90
2018-05-17T05:40:33.605Z,70.80
2018-05-17T05:43:01.658Z,71.30
2018-05-17T05:45:29.723Z,71.50
2018-05-17T05:47:58.593Z,69.90
2018-05-17T05:50:26.661Z,69.20
2018-05-17T05:52:54.716Z,68.50
2018-05-17T05:55:22.781Z,68.40
2018-05-17T05:57:50.852Z,67.80
2018-05-17T06:00:18.919Z,67.50
2018-05-17T06:02:46.982Z,67.00
2018-05-17T06:05:15.061Z,66.20
2018-05-17T06:07:44.081Z,66.30
2018-05-17T06:10:12.130Z,65.10
2018-05-17T06:12:41.052Z,65.70
2018-05-17T06:15:09.846Z,68.00
2018-05-17T06:17:37.937Z,68.30
2018-05-17T06:20:05.974Z,65.00
2018-05-17T06:22:35.011Z,64.80
2018-05-17T06:25:03.071Z,64.90
2018-05-17T06:27:31.129Z,65.10
2018-05-17T06:29:59.182Z,63.00
2018-05-17T06:32:28.000Z,67.10
2018-05-17T06:34:56.066Z,66.80
2018-05-17T06:37:24.122Z,67.60
2018-05-17T06:39:52.185Z,67.20
2018-05-17T06:42:20.269Z,67.30
2018-05-17T06:44:49.055Z,67.00
2018-05-17T06:47:17.130Z,67.50
2018-05-17T06:49:45.189Z,66.70
2018-05-17T06:52:13.261Z,66.00
2018-05-17T06:54:41.358Z,65.40
2018-05-17T06:57:09.424Z,65.50
2018-05-17T06:59:37.474Z,65.30
2018-05-17T07:02:05.547Z,64.90
2018-05-17T07:04:34.508Z,64.70
2018-05-17T07:07:02.622Z,64.30
2018-05-17T07:09:30.633Z,64.10
2018-05-17T07:11:58.705Z,64.40
2018-05-17T07:14:27.570Z,64.40
2018-05-17T07:16:55.646Z,64.50
2018-05-17T07:19:23.707Z,64.00
2018-05-17T07:21:51.775Z,64.00
2018-05-17T07:24:19.822Z,64.20
2018-05-17T07:26:48.648Z,64.00
2018-05-17T07:29:16.706Z,64.00
2018-05-17T07:31:44.752Z,64.00
2018-05-17T07:34:13.582Z,62.90
2018-05-17T07:36:41.654Z,62.90
2018-05-17T07:39:09.799Z,62.70
2018-05-17T07:41:38.575Z,62.20
2018-05-17T07:44:07.402Z,60.90
2018-05-17T07:46:35.491Z,60.90
2018-05-17T07:49:03.530Z,60.90
2018-05-17T07:51:31.588Z,61.10
2018-05-17T07:53:59.769Z,60.70
2018-05-17T07:56:29.368Z,59.30
2018-05-17T07:58:57.480Z,59.80
2018-05-17T08:01:25.542Z,58.60
2018-05-17T08:03:53.710Z,57.50
2018-05-17T08:06:21.653Z,57.10
2018-05-17T08:08:49.738Z,55.90
2018-05-17T08:11:17.782Z,56.60
2018-05-17T08:13:46.602Z,55.90
2018-05-17T08:16:14.713Z,56.30
2018-05-17T08:18:42.826Z,56.80
2018-05-17T08:21:10.841Z,56.10
2018-05-17T08:23:38.932Z,56.80
2018-05-17T08:26:06.990Z,57.20
2018-05-17T08:28:35.036Z,55.90
2018-05-17T08:31:03.118Z,56.70
2018-05-17T08:33:31.181Z,56.00
2018-05-17T08:35:59.283Z,54.30
2018-05-17T08:38:27.319Z,54.80
2018-05-17T08:40:55.398Z,54.30
2018-05-17T08:43:23.455Z,54.20
2018-05-17T08:48:25.861Z,49.00
2018-05-17T08:50:53.918Z,48.90
2018-05-17T08:53:21.996Z,49.20
2018-05-17T08:55:50.068Z,50.10
2018-05-17T08:58:18.616Z,50.60
2018-05-17T09:00:46.663Z,48.30
2018-05-17T09:03:14.751Z,48.60
2018-05-17T09:05:43.578Z,44.90
2018-05-17T09:08:11.686Z,44.80
2018-05-17T09:10:39.772Z,43.00
2018-05-17T09:13:07.855Z,40.00
2018-05-17T09:15:36.654Z,41.30
2018-05-17T09:18:05.498Z,41.30
2018-05-17T09:20:33.613Z,41.40
2018-05-17T09:23:01.650Z,42.00
2018-05-17T09:25:29.676Z,34.40
2018-05-17T09:27:57.709Z,34.30
2018-05-17T09:30:25.802Z,32.30
2018-05-17T09:32:55.603Z,29.20
2018-05-17T09:35:23.677Z,29.20
2018-05-17T09:37:52.471Z,29.10
2018-05-17T09:40:20.535Z,29.60
2018-05-17T09:42:48.587Z,30.00
2018-05-17T09:45:16.643Z,31.70
2018-05-17T09:47:44.702Z,32.60
2018-05-17T09:50:12.736Z,34.60
2018-05-17T09:52:40.794Z,36.60
2018-05-17T09:55:09.685Z,36.40
2018-05-17T09:57:37.778Z,35.60
2018-05-17T10:00:05.873Z,35.50
2018-05-17T10:02:33.980Z,35.80
2018-05-17T10:05:02.096Z,36.00
2018-05-17T10:07:30.155Z,33.50
2018-05-17T10:09:58.626Z,32.90
2018-05-17T10:12:27.482Z,32.40
2018-05-17T10:14:55.554Z,32.40
2018-05-17T10:17:23.628Z,27.00
2018-05-17T10:19:51.709Z,26.20
2018-05-17T10:22:19.767Z,26.20
2018-05-17T10:24:48.250Z,28.00
2018-05-17T10:27:16.340Z,29.00
2018-05-17T10:29:44.390Z,30.80
2018-05-17T10:32:14.366Z,32.20
2018-05-17T10:34:42.410Z,32.60
2018-05-17T10:39:45.829Z,33.20
2018-05-17T10:42:13.886Z,33.20
2018-05-17T10:44:41.938Z,32.20
2018-05-17T10:47:10.015Z,31.60
2018-05-17T10:49:38.083Z,29.60
2018-05-17T10:52:06.155Z,29.20
2018-05-17T10:54:34.316Z,28.80
2018-05-17T10:57:02.308Z,26.90
2018-05-17T10:59:30.353Z,26.90
2018-05-17T11:01:58.654Z,27.20
2018-05-17T11:04:27.098Z,28.20
2018-05-17T11:06:55.245Z,28.30
2018-05-17T11:09:24.035Z,27.90
2018-05-17T11:11:52.182Z,28.20
2018-05-17T11:14:21.370Z,28.80
2018-05-17T11:16:49.427Z,28.70
2018-05-17T11:19:17.454Z,29.20
2018-05-17T11:21:45.567Z,28.60
2018-05-17T11:24:13.614Z,29.00
2018-05-17T11:26:41.697Z,28.90
2018-05-17T11:29:09.770Z,29.30
2018-05-17T11:31:37.839Z,29.40
2018-05-17T11:34:05.898Z,29.20
2018-05-17T11:36:33.953Z,29.00
2018-05-17T11:39:02.018Z,29.50
2018-05-17T11:41:30.075Z,29.80
2018-05-17T11:43:58.910Z,29.70
2018-05-17T11:46:26.959Z,29.40
2018-05-17T11:48:55.117Z,29.50
2018-05-17T11:51:23.089Z,30.00
2018-05-17T11:53:51.169Z,30.20
2018-05-17T11:56:19.242Z,30.30
2018-05-17T11:58:47.347Z,30.40
2018-05-17T12:01:15.410Z,31.90
2018-05-17T12:03:43.475Z,31.80
2018-05-17T12:06:11.554Z,31.30
2018-05-17T12:08:39.620Z,31.90
2018-05-17T12:11:07.659Z,32.30
2018-05-17T12:13:35.734Z,32.40
2018-05-17T12:16:04.206Z,32.20
2018-05-17T12:18:32.699Z,32.60
2018-05-17T12:21:01.478Z,33.00
2018-05-17T12:23:29.546Z,33.20
2018-05-17T12:25:57.622Z,33.20
2018-05-17T12:28:25.668Z,33.20
2018-05-17T12:30:54.116Z,33.30
2018-05-17T12:33:22.280Z,33.70
2018-05-17T12:35:50.338Z,34.30
2018-05-17T12:38:18.411Z,34.40
2018-05-17T12:40:46.478Z,33.70
2018-05-17T12:43:14.546Z,33.90
2018-05-17T12:45:42.610Z,34.30
2018-05-17T12:48:10.672Z,34.70
2018-05-17T12:50:39.496Z,35.50
2018-05-17T12:53:07.565Z,35.20
2018-05-17T12:55:35.635Z,35.40
2018-05-17T12:58:03.738Z,35.20
2018-05-17T13:00:32.202Z,35.10
2018-05-17T13:03:00.255Z,35.50
2018-05-17T13:05:29.083Z,36.50
2018-05-17T13:07:57.527Z,36.10
2018-05-17T13:10:25.587Z,35.70
2018-05-17T13:12:53.672Z,36.00
2018-05-17T13:15:21.709Z,36.50
2018-05-17T13:17:49.774Z,37.00
2018-05-17T13:20:18.586Z,36.70
2018-05-17T13:22:46.667Z,37.80
2018-05-17T13:25:14.724Z,37.50
2018-05-17T13:27:43.557Z,38.90
2018-05-17T13:30:13.117Z,38.60
2018-05-17T13:32:41.095Z,38.90
2018-05-17T13:35:09.935Z,40.00
2018-05-17T13:37:38.084Z,40.20
2018-05-17T13:40:06.113Z,40.30
2018-05-17T13:42:34.247Z,39.90
2018-05-17T13:45:03.032Z,38.60
2018-05-17T13:47:31.923Z,38.00
2018-05-17T13:49:59.952Z,38.30
2018-05-17T13:52:27.986Z,38.90
2018-05-17T13:54:57.365Z,40.20
2018-05-17T13:57:26.099Z,39.50
2018-05-17T13:59:54.178Z,40.20
2018-05-17T14:02:22.274Z,40.20
2018-05-17T14:04:50.303Z,40.30
2018-05-17T14:07:19.141Z,40.30
2018-05-17T14:09:47.437Z,40.00
2018-05-17T14:12:15.912Z,39.80
2018-05-17T14:14:43.969Z,40.10
2018-05-17T14:17:12.810Z,40.60
2018-05-17T14:19:42.425Z,41.50
2018-05-17T14:22:11.026Z,42.30
2018-05-17T14:24:39.728Z,41.60
2018-05-17T14:27:07.773Z,42.00
2018-05-17T14:29:35.815Z,41.80
2018-05-17T14:32:04.676Z,42.70
2018-05-17T14:34:32.729Z,43.00
2018-05-17T14:37:00.794Z,43.60
2018-05-17T14:39:29.602Z,43.30
2018-05-17T14:41:57.683Z,43.60
2018-05-17T14:44:25.733Z,43.40
2018-05-17T14:46:54.096Z,43.70
2018-05-17T14:49:22.155Z,43.70
2018-05-17T14:51:50.210Z,43.30
2018-05-17T14:54:19.067Z,43.50
2018-05-17T14:56:49.385Z,43.70
2018-05-17T14:59:18.305Z,43.70
2018-05-17T15:01:47.141Z,43.80
2018-05-17T15:04:16.794Z,46.80
2018-05-17T15:06:44.915Z,42.90
2018-05-17T15:11:42.594Z,43.70
2018-05-17T15:14:10.661Z,43.30
2018-05-17T15:16:38.731Z,43.00
2018-05-17T15:19:06.850Z,42.40
2018-05-17T15:21:35.241Z,43.40
2018-05-17T15:24:04.892Z,44.40
2018-05-17T15:26:33.031Z,45.20
2018-05-17T15:29:01.503Z,45.40
2018-05-17T15:31:29.578Z,45.90
2018-05-17T15:33:58.026Z,46.20
2018-05-17T15:36:26.073Z,47.00
2018-05-17T15:38:54.885Z,47.40
2018-05-17T15:41:22.926Z,48.00
2018-05-17T15:43:51.016Z,48.20
2018-05-17T15:46:19.073Z,49.10
2018-05-17T15:48:47.141Z,50.00
2018-05-17T15:51:15.537Z,50.20
2018-05-17T15:53:44.533Z,49.20
2018-05-17T15:56:12.601Z,50.80
2018-05-17T15:58:40.675Z,51.30
2018-05-17T16:01:09.490Z,51.90
2018-05-17T16:03:37.962Z,52.00
2018-05-17T16:06:06.011Z,52.30
2018-05-17T16:08:34.198Z,52.80
2018-05-17T16:11:02.298Z,53.10
2018-05-17T16:13:30.326Z,53.90
2018-05-17T16:15:58.386Z,58.40
2018-05-17T16:18:26.543Z,57.10
2018-05-17T16:20:55.739Z,54.80
2018-05-17T16:23:24.581Z,57.20
2018-05-17T16:25:52.688Z,55.50
2018-05-17T16:28:20.710Z,55.40
2018-05-17T16:30:48.783Z,55.80
2018-05-17T16:33:16.875Z,55.80
2018-05-17T16:35:44.911Z,56.20
2018-05-17T16:38:13.669Z,56.00
2018-05-17T16:40:42.486Z,56.60
2018-05-17T16:43:10.578Z,56.40
2018-05-17T16:45:38.628Z,56.80
2018-05-17T16:48:06.731Z,57.40
2018-05-17T16:50:34.777Z,57.80
2018-05-17T16:53:02.890Z,58.00
2018-05-17T16:55:30.901Z,58.40
2018-05-17T16:57:58.969Z,58.60
2018-05-17T17:00:27.100Z,58.60
2018-05-17T17:02:55.847Z,59.40
2018-05-17T17:05:23.946Z,59.40
2018-05-17T17:07:52.003Z,59.30
2018-05-17T17:10:20.056Z,59.70
2018-05-17T17:12:48.137Z,60.00
2018-05-17T17:15:16.787Z,60.00
2018-05-17T17:17:45.646Z,60.60
2018-05-17T17:20:13.698Z,60.50
2018-05-17T17:22:41.748Z,60.70
2018-05-17T17:25:09.838Z,61.10
2018-05-17T17:27:37.886Z,61.20
2018-05-17T17:30:05.962Z,61.40
2018-05-17T17:32:33.996Z,61.30
2018-05-17T17:35:02.839Z,62.00
2018-05-17T17:37:32.919Z,61.30
2018-05-17T17:40:00.998Z,61.60
2018-05-17T17:42:29.041Z,61.60
2018-05-17T17:44:57.866Z,62.40
2018-05-17T17:47:25.922Z,61.90
2018-05-17T17:49:54.834Z,63.10
2018-05-17T17:52:22.859Z,62.90
2018-05-17T17:54:51.692Z,63.90
2018-05-17T17:57:19.783Z,63.50
2018-05-17T17:59:48.402Z,63.20
2018-05-17T18:02:17.139Z,63.90
2018-05-17T18:04:45.882Z,63.70
2018-05-17T18:07:14.673Z,64.10
2018-05-17T18:09:43.532Z,65.00
2018-05-17T18:12:11.560Z,64.60
2018-05-17T18:14:39.630Z,64.80
2018-05-17T18:17:07.692Z,65.10
2018-05-17T18:19:36.486Z,65.90
2018-05-17T18:22:04.559Z,65.70
2018-05-17T18:24:32.626Z,65.60
2018-05-17T18:27:01.407Z,66.40
2018-05-17T18:29:30.224Z,66.40
2018-05-17T18:31:58.280Z,66.20
2018-05-17T18:34:26.334Z,66.20
2018-05-17T18:36:55.484Z,67.10
2018-05-17T18:39:24.812Z,66.50
2018-05-17T18:41:53.549Z,66.50
2018-05-17T18:44:22.001Z,66.60
2018-05-17T18:46:51.049Z,67.10
2018-05-17T18:49:19.559Z,66.80
2018-05-17T18:51:47.848Z,66.90
2018-05-17T18:54:16.028Z,66.70
2018-05-17T18:56:44.895Z,67.60
2018-05-17T18:59:13.001Z,67.10
2018-05-17T19:01:41.150Z,67.10
2018-05-17T19:04:09.190Z,67.60
2018-05-17T19:06:37.238Z,67.40
2018-05-17T19:09:05.328Z,67.50
2018-05-17T19:11:33.358Z,67.50
2018-05-17T19:14:01.953Z,67.60
2018-05-17T19:16:29.894Z,67.70
2018-05-17T19:18:57.987Z,67.80
2018-05-17T19:21:26.853Z,68.40
2018-05-17T19:23:54.940Z,68.00
2018-05-17T19:26:23.790Z,68.40
2018-05-17T19:28:51.877Z,68.40
2018-05-17T19:31:20.166Z,68.40
2018-05-17T19:33:48.193Z,68.40
2018-05-17T19:36:16.208Z,68.30
2018-05-17T19:38:44.720Z,68.60
2018-05-17T19:41:12.803Z,68.70
2018-05-17T19:43:40.867Z,68.90
2018-05-17T19:46:08.949Z,68.90
2018-05-17T19:48:38.178Z,69.40
2018-05-17T19:51:06.254Z,69.00
2018-05-17T19:53:34.378Z,69.30
2018-05-17T19:56:02.439Z,69.00
2018-05-17T19:58:31.229Z,69.10
2018-05-17T20:00:59.279Z,68.60
2018-05-17T20:03:28.150Z,68.80
2018-05-17T20:05:57.013Z,68.40
2018-05-17T20:08:25.781Z,68.50
2018-05-17T20:10:53.849Z,68.70
2018-05-17T20:13:21.883Z,69.00
2018-05-17T20:15:50.730Z,69.80
2018-05-17T20:18:18.772Z,69.60
2018-05-17T20:20:46.866Z,69.80
2018-05-17T20:23:14.899Z,69.90
2018-05-17T20:25:43.787Z,70.50
2018-05-17T20:28:12.632Z,70.60
2018-05-17T20:30:42.252Z,69.90
2018-05-17T20:33:10.315Z,70.10
2018-05-17T20:35:38.394Z,70.20
2018-05-17T20:38:06.451Z,70.60
2018-05-17T20:40:35.355Z,70.30
2018-05-17T20:43:03.400Z,70.50
2018-05-17T20:45:31.473Z,70.50
2018-05-17T20:47:59.514Z,70.40
2018-05-17T20:50:27.601Z,70.50
2018-05-17T20:52:56.405Z,70.70
2018-05-17T20:55:24.463Z,71.30
2018-05-17T20:57:52.595Z,71.40
2018-05-17T21:00:20.623Z,71.40
2018-05-17T21:02:48.705Z,71.40
2018-05-17T21:05:16.762Z,71.50
2018-05-17T21:07:44.867Z,71.60
2018-05-17T21:10:13.165Z,71.70
2018-05-17T21:12:42.044Z,71.30
2018-05-17T21:15:10.819Z,71.30
2018-05-17T21:17:38.859Z,71.20
2018-05-17T21:20:07.106Z,71.40
2018-05-17T21:22:35.240Z,71.60
2018-05-17T21:25:03.267Z,71.80
2018-05-17T21:27:31.341Z,71.90
2018-05-17T21:29:59.574Z,71.90
2018-05-17T21:32:27.614Z,71.90
2018-05-17T21:34:55.742Z,71.80
2018-05-17T21:37:24.736Z,71.80
2018-05-17T21:39:52.805Z,71.80
2018-05-17T21:42:20.871Z,72.00
2018-05-17T21:44:49.715Z,72.20
2018-05-17T21:47:17.773Z,72.20
2018-05-17T21:49:45.870Z,71.90
2018-05-17T21:52:13.955Z,71.90
2018-05-17T21:54:42.014Z,72.00
2018-05-17T21:57:10.224Z,72.00
2018-05-17T21:59:38.366Z,72.30
2018-05-17T22:02:06.457Z,72.30
2018-05-17T22:04:35.320Z,72.30
2018-05-17T22:07:03.911Z,72.30
2018-05-17T22:09:31.996Z,72.70
2018-05-17T22:12:00.842Z,72.60
2018-05-17T22:14:28.895Z,72.60
2018-05-17T22:16:57.667Z,72.30
2018-05-17T22:19:25.696Z,72.20
2018-05-17T22:21:53.784Z,72.50
2018-05-17T22:24:21.973Z,72.70
2018-05-17T22:26:50.000Z,73.10
2018-05-17T22:29:18.053Z,73.10
2018-05-17T22:31:46.139Z,72.80
2018-05-17T22:34:14.173Z,72.80
2018-05-17T22:36:42.256Z,72.70
2018-05-17T22:39:10.314Z,72.80
2018-05-17T22:41:38.378Z,73.00
2018-05-17T22:44:06.519Z,72.90
2018-05-17T22:46:34.578Z,72.70
2018-05-17T22:49:03.505Z,72.70
2018-05-17T22:51:32.344Z,72.70
2018-05-17T22:54:00.371Z,72.70
2018-05-17T22:59:31.981Z,72.90
2018-05-17T23:02:00.022Z,72.70
2018-05-17T23:04:28.083Z,72.40
2018-05-17T23:06:56.937Z,72.40
2018-05-17T23:09:24.991Z,72.30
2018-05-17T23:11:53.055Z,72.30
2018-05-17T23:14:21.126Z,72.20
2018-05-17T23:16:49.195Z,72.20
2018-05-17T23:19:17.233Z,72.30
2018-05-17T23:21:46.061Z,72.50
2018-05-17T23:24:14.146Z,72.40
2018-05-17T23:26:42.221Z,72.70
2018-05-17T23:29:10.267Z,72.90
2018-05-17T23:31:38.310Z,72.80
2018-05-17T23:34:06.438Z,73.40
2018-05-17T23:36:34.485Z,73.60
2018-05-17T23:39:02.566Z,73.70
2018-05-17T23:41:36.537Z,73.80
2018-05-17T23:44:04.580Z,73.40
2018-05-17T23:46:32.674Z,74.00
2018-05-17T23:49:00.710Z,74.10
2018-05-17T23:51:30.091Z,74.10
2018-05-17T23:53:58.185Z,73.60
2018-05-17T23:56:26.223Z,74.10
2018-05-17T23:58:54.278Z,73.70
